createdAt,value
2023-05-16T00:03:32.908Z,20.73
2023-05-16T00:08:37.706Z,25.35
2023-05-16T00:13:45.682Z,20.08
2023-05-16T00:18:50.614Z,18.60
2023-05-16T00:23:55.679Z,24.73
2023-05-16T00:29:02.987Z,19.65
2023-05-16T00:34:07.894Z,20.45
2023-05-16T00:39:13.152Z,19.80
2023-05-16T00:44:20.540Z,21.00
2023-05-16T00:49:25.329Z,16.40
2023-05-16T00:54:30.153Z,20.38
2023-05-16T00:59:37.800Z,21.33
2023-05-16T01:04:42.853Z,19.35
2023-05-16T01:09:47.728Z,18.08
2023-05-16T01:14:59.715Z,16.15
2023-05-16T01:20:11.584Z,16.20
2023-05-16T01:25:24.230Z,14.55
2023-05-16T01:30:35.785Z,14.48
2023-05-16T01:35:43.269Z,13.93
2023-05-16T01:40:51.308Z,15.23
2023-05-16T01:46:01.011Z,16.67
2023-05-16T01:56:27.041Z,15.05
2023-05-16T02:01:34.742Z,17.40
2023-05-16T02:06:39.573Z,15.45
2023-05-16T02:11:44.239Z,14.10
2023-05-16T02:16:51.572Z,14.73
2023-05-16T02:21:57.057Z,13.13
2023-05-16T02:27:01.994Z,13.38
2023-05-16T02:32:09.540Z,14.30
2023-05-16T02:37:14.266Z,14.52
2023-05-16T02:42:19.064Z,13.57
2023-05-16T02:47:26.590Z,15.30
2023-05-16T02:52:31.326Z,12.10
2023-05-16T02:57:36.006Z,16.00
2023-05-16T03:02:43.799Z,14.50
2023-05-16T03:07:48.606Z,13.35
2023-05-16T03:12:53.624Z,16.58
2023-05-16T03:18:01.131Z,13.20
2023-05-16T03:23:07.937Z,13.35
2023-05-16T03:28:14.065Z,14.50
2023-05-16T03:33:24.004Z,16.80
2023-05-16T03:38:28.725Z,16.27
2023-05-16T03:43:33.458Z,11.90
2023-05-16T03:48:40.878Z,12.18
2023-05-16T03:53:45.585Z,13.77
2023-05-16T03:58:50.490Z,15.15
2023-05-16T04:03:57.767Z,11.05
2023-05-16T04:09:02.687Z,12.02
2023-05-16T04:14:07.786Z,15.25
2023-05-16T04:19:15.287Z,11.25
2023-05-16T04:24:20.080Z,14.45
2023-05-16T04:29:24.901Z,32.95
2023-05-16T04:34:34.235Z,15.30
2023-05-16T04:39:39.010Z,12.65
2023-05-16T04:44:44.343Z,9.77
2023-05-16T04:49:51.614Z,11.80
2023-05-16T04:54:56.367Z,13.60
2023-05-16T05:00:01.183Z,11.57
2023-05-16T05:05:08.898Z,13.77
2023-05-16T05:10:14.224Z,11.75
2023-05-16T05:15:19.639Z,9.05
2023-05-16T05:20:26.964Z,14.63
2023-05-16T05:25:31.672Z,9.48
2023-05-16T05:30:36.837Z,11.07
2023-05-16T05:35:44.200Z,8.10
2023-05-16T05:40:49.884Z,8.90
2023-05-16T05:45:55.313Z,9.23
2023-05-16T05:51:02.748Z,9.20
2023-05-16T05:56:10.047Z,10.88
2023-05-16T06:01:14.897Z,10.20
2023-05-16T06:06:22.329Z,10.50
2023-05-16T06:11:27.118Z,8.07
2023-05-16T06:16:32.002Z,9.30
2023-05-16T06:21:39.351Z,8.98
2023-05-16T06:26:46.467Z,10.25
2023-05-16T06:31:53.421Z,9.18
2023-05-16T06:37:01.142Z,10.50
2023-05-16T06:42:08.194Z,10.90
2023-05-16T06:47:16.230Z,11.38
2023-05-16T06:52:23.572Z,13.05
2023-05-16T06:57:29.723Z,7.53
2023-05-16T07:02:34.746Z,11.38
2023-05-16T07:07:42.256Z,8.30
2023-05-16T07:12:47.074Z,7.07
2023-05-16T07:17:52.034Z,8.98
2023-05-16T07:28:18.575Z,6.45
2023-05-16T07:33:23.351Z,10.20
2023-05-16T07:38:31.168Z,5.75
2023-05-16T07:43:37.158Z,6.38
2023-05-16T07:48:41.954Z,6.45
2023-05-16T07:53:49.422Z,10.68
2023-05-16T07:58:54.198Z,6.63
2023-05-16T08:03:59.073Z,6.97
2023-05-16T08:09:06.684Z,7.10
2023-05-16T08:14:11.596Z,10.85
2023-05-16T08:19:16.431Z,8.23
2023-05-16T08:24:23.990Z,10.93
2023-05-16T08:29:28.948Z,9.50
2023-05-16T08:34:34.528Z,7.82
2023-05-16T08:39:42.035Z,8.52
2023-05-16T08:44:46.759Z,8.43
2023-05-16T08:49:54.319Z,7.97
2023-05-16T08:55:11.080Z,8.25
2023-05-16T09:00:18.218Z,7.38
2023-05-16T09:05:23.087Z,6.53
2023-05-16T09:10:30.413Z,6.18
2023-05-16T09:15:36.334Z,5.97
2023-05-16T09:31:36.984Z,5.93
2023-05-16T09:36:43.793Z,6.05
2023-05-16T09:41:48.975Z,6.90
2023-05-16T09:46:56.827Z,7.68
2023-05-16T09:52:04.258Z,5.60
2023-05-16T09:57:09.200Z,5.78
2023-05-16T10:02:17.163Z,5.95
2023-05-16T10:07:22.591Z,7.38
2023-05-16T10:12:30.287Z,7.53
2023-05-16T10:17:41.888Z,4.97
2023-05-16T10:22:47.437Z,5.45
2023-05-16T10:27:52.774Z,11.00
2023-05-16T10:33:05.040Z,7.82
2023-05-16T10:54:15.378Z,8.63
2023-05-16T10:59:29.309Z,6.07
2023-05-16T11:04:48.796Z,7.22
2023-05-16T11:10:06.327Z,10.38
2023-05-16T11:15:25.148Z,7.45
2023-05-16T11:26:01.125Z,6.75
2023-05-16T11:31:07.092Z,7.43
2023-05-16T11:36:16.269Z,7.15
2023-05-16T11:41:25.359Z,6.53
2023-05-16T11:46:31.097Z,7.37
2023-05-16T11:51:36.034Z,8.05
2023-05-16T11:56:44.942Z,7.70
2023-05-16T12:01:50.793Z,10.77
2023-05-16T12:07:06.148Z,8.50
2023-05-16T12:12:14.456Z,6.30
2023-05-16T12:17:20.673Z,6.65
2023-05-16T12:22:32.001Z,10.15
2023-05-16T12:27:41.038Z,8.15
2023-05-16T12:32:48.093Z,8.90
2023-05-16T12:37:54.031Z,8.30
2023-05-16T12:43:02.930Z,7.38
2023-05-16T12:48:08.302Z,6.63
2023-05-16T12:53:15.966Z,8.50
2023-05-16T12:58:23.906Z,7.88
2023-05-16T13:03:28.943Z,7.22
2023-05-16T13:08:34.334Z,6.38
2023-05-16T13:13:41.811Z,9.00
2023-05-16T13:18:46.707Z,7.13
2023-05-16T13:23:51.520Z,7.05
2023-05-16T13:28:59.023Z,7.43
2023-05-16T13:34:04.608Z,6.68
2023-05-16T13:39:09.420Z,6.28
2023-05-16T13:44:16.991Z,8.45
2023-05-16T13:49:22.560Z,6.35
2023-05-16T13:54:30.391Z,7.50
2023-05-16T14:00:03.998Z,6.07
2023-05-16T14:05:02.518Z,7.70
2023-05-16T14:10:07.737Z,7.93
2023-05-16T14:15:15.325Z,6.85
2023-05-16T14:20:23.457Z,7.20
2023-05-16T14:25:28.664Z,9.13
2023-05-16T14:30:37.612Z,7.35
2023-05-16T14:35:43.960Z,6.65
2023-05-16T14:40:48.874Z,7.45
2023-05-16T14:45:56.356Z,9.18
2023-05-16T14:51:01.195Z,6.70
2023-05-16T14:56:06.448Z,6.78
2023-05-16T15:01:15.545Z,7.18
2023-05-16T15:11:24.946Z,6.32
2023-05-16T15:16:32.805Z,8.07
2023-05-16T15:32:41.984Z,6.43
2023-05-16T15:37:49.814Z,7.38
2023-05-16T15:42:54.745Z,11.18
2023-05-16T15:48:02.375Z,6.53
2023-05-16T15:53:07.185Z,14.82
2023-05-16T15:58:11.949Z,7.00
2023-05-16T16:03:19.594Z,5.07
2023-05-16T16:08:24.612Z,5.07
2023-05-16T16:13:29.445Z,6.72
2023-05-16T16:18:36.886Z,6.15
2023-05-16T16:23:42.369Z,7.65
2023-05-16T16:28:47.422Z,7.15
2023-05-16T16:33:55.210Z,6.20
2023-05-16T16:39:00.094Z,4.38
2023-05-16T16:44:04.913Z,6.07
2023-05-16T16:49:12.323Z,6.55
2023-05-16T16:54:17.278Z,13.60
2023-05-16T16:59:22.209Z,9.13
2023-05-16T17:04:29.874Z,6.75
2023-05-16T17:09:34.617Z,7.13
2023-05-16T17:14:39.484Z,10.23
2023-05-16T17:19:48.624Z,8.48
2023-05-16T17:24:53.509Z,8.45
2023-05-16T17:29:58.317Z,8.52
2023-05-16T17:35:06.339Z,9.02
2023-05-16T17:40:17.423Z,9.20
2023-05-16T17:45:25.521Z,8.57
2023-05-16T18:01:40.453Z,8.98
2023-05-16T18:06:56.826Z,17.30
2023-05-16T18:28:04.381Z,8.75
2023-05-16T18:33:09.351Z,10.00
2023-05-16T18:38:28.405Z,9.15
2023-05-16T18:59:40.172Z,12.70
2023-05-16T19:04:48.609Z,12.95
2023-05-16T20:03:38.259Z,12.05
2023-05-16T20:58:21.046Z,21.20
2023-05-16T21:03:25.953Z,13.13
2023-05-16T21:08:30.681Z,10.15
2023-05-16T21:13:38.208Z,12.43
2023-05-16T21:18:43.262Z,12.93
2023-05-16T21:23:48.212Z,13.30
2023-05-16T21:28:56.132Z,15.60
2023-05-16T21:34:01.095Z,15.18
2023-05-16T21:39:06.031Z,14.70
2023-05-16T21:44:17.411Z,15.73
2023-05-16T21:49:22.193Z,15.18
2023-05-16T21:54:27.371Z,18.83
2023-05-16T21:59:34.720Z,19.80
2023-05-16T22:04:39.490Z,18.90
2023-05-16T22:09:45.020Z,17.48
2023-05-16T22:14:52.467Z,17.42
2023-05-16T22:19:57.425Z,18.42
2023-05-16T22:25:02.230Z,18.85
2023-05-16T22:30:10.411Z,18.02
2023-05-16T22:35:15.326Z,14.40
2023-05-16T22:40:20.034Z,15.10
2023-05-16T22:45:27.698Z,14.90
2023-05-16T22:50:32.816Z,16.00
2023-05-16T22:55:37.594Z,17.42
2023-05-16T23:00:45.089Z,16.13
2023-05-16T23:05:49.986Z,14.30
2023-05-16T23:10:54.699Z,16.52
2023-05-16T23:16:02.086Z,15.27
2023-05-16T23:26:25.735Z,14.90
2023-05-16T23:31:33.127Z,15.75
2023-05-16T23:36:37.924Z,16.70
2023-05-16T23:41:42.773Z,14.93
2023-05-16T23:46:50.136Z,16.27
2023-05-16T23:51:57.382Z,14.90
2023-05-16T23:57:02.877Z,13.98
